KLEE

Leesburg International Airport

Leesburg, Florida, USA
METAR KLEE 212053Z 03011G15KT 10SM CLR 26/12 A3006 RMK AO2 SLP178 T02560117 55005
Observed Flight Rules
Oct-21 @ 20:53 UTC (17 minutes ago) Visual Flight Rules
Wind Visibility Clouds
30° at 11 knots
 Gusting to 15 knots
10 miles
  • Clear skies
Temperatures Readings
Current 26°C / 79°F
Dewpoint 12°C / 54°F
Humidity 42%
Altimeter 30.06" Hg
Pressure 1017.8 hPa
Elevation 23
METAR KLEE 212053Z 03011G15KT 10SM CLR 26/12 A3006 RMK AO2 SLP178 T02560117 55005
Observed Flight Rules
Oct-21 @ 20:53 UTC
(17 minutes ago)
VFR
Wind Visibility
30° at 11 knots
 Gusting to 15 knots
10 miles
Clouds
  • Clear skies
Temperature Dewpoint
26°C / 79°F 12°C / 54°F
Humidity Altimeter Pressure
42% 30.06" Hg 1017.8 hPa